aviador You're here:

KAUS Decoded Metar

AUSTIN in TX, USA
Report Time2018-07-19 12:53:00
UTC Time2018-07-19 12:59:49
Flight Rules vfr VFR
Wind200° at 08 kt
W.Decomp.*RWY 17: 7.3 kt HW 3.3 kt RCW
W.Rank200° ranks 6
Current wind is below 200° avg. (8.2)
Visibility9999 m
Phenomena:N/A
Clouds:Scattered 009 Hf
Broken 200 Hf
Expected CloudBase > 400 ft AGL from Temp-Dew spread
Ceiling20,000 ft
Temp25°C (ISA +11)
Dew Point24°C (94% RH)
QNH1014 hPa
Density Alt2,188 ft
Elevation545 ft
Report Wrong Elevation
Raw Report
METAR KAUS 191253Z 20008KT 8SM SCT009 BKN200 25/24 A2995 RMK AO2
SLP130 T02500239=

Extra information for KAUS:More info

Metar Taf Metar & Taf Last 4 Metars F.Rules Stats Wind Profile Meteogram Temp Stats Airport Information Weather charts Add Link Nearby VenuesMetar ALERT Operation Metar Decoded Social comments

AIRNAV info for KAUS